sensor_id;sensor_type;location;lat;lon;timestamp;P1;durP1;ratioP1;P2;durP2;ratioP2
53253;SDS011;39148;53.332;6.922;2023-06-24T00:01:48;5.78;;;3.42;;
53253;SDS011;39148;53.332;6.922;2023-06-24T00:04:14;5.35;;;3.35;;
53253;SDS011;39148;53.332;6.922;2023-06-24T00:06:42;6.45;;;3.40;;
53253;SDS011;39148;53.332;6.922;2023-06-24T00:09:07;5.15;;;3.50;;
53253;SDS011;39148;53.332;6.922;2023-06-24T00:11:33;5.70;;;3.13;;
53253;SDS011;39148;53.332;6.922;2023-06-24T00:13:59;5.80;;;3.10;;
53253;SDS011;39148;53.332;6.922;2023-06-24T00:16:24;5.95;;;3.35;;
53253;SDS011;39148;53.332;6.922;2023-06-24T00:18:53;6.13;;;3.83;;
53253;SDS011;39148;53.332;6.922;2023-06-24T00:21:20;4.93;;;3.45;;
53253;SDS011;39148;53.332;6.922;2023-06-24T00:23:47;5.32;;;3.17;;
53253;SDS011;39148;53.332;6.922;2023-06-24T00:26:14;5.20;;;3.78;;
53253;SDS011;39148;53.332;6.922;2023-06-24T00:28:41;4.90;;;3.50;;
53253;SDS011;39148;53.332;6.922;2023-06-24T00:31:07;5.90;;;3.63;;
53253;SDS011;39148;53.332;6.922;2023-06-24T00:33:33;4.85;;;3.45;;
53253;SDS011;39148;53.332;6.922;2023-06-24T00:36:01;6.32;;;3.33;;
53253;SDS011;39148;53.332;6.922;2023-06-24T00:38:27;5.43;;;3.90;;
53253;SDS011;39148;53.332;6.922;2023-06-24T00:40:57;6.32;;;3.78;;
53253;SDS011;39148;53.332;6.922;2023-06-24T00:43:23;5.13;;;3.40;;
53253;SDS011;39148;53.332;6.922;2023-06-24T00:45:50;5.22;;;3.42;;
53253;SDS011;39148;53.332;6.922;2023-06-24T00:48:16;6.88;;;3.63;;
53253;SDS011;39148;53.332;6.922;2023-06-24T00:50:42;5.35;;;3.22;;
53253;SDS011;39148;53.332;6.922;2023-06-24T00:53:10;5.97;;;3.58;;
53253;SDS011;39148;53.332;6.922;2023-06-24T00:55:37;6.55;;;3.47;;
53253;SDS011;39148;53.332;6.922;2023-06-24T00:58:03;5.60;;;3.50;;
53253;SDS011;39148;53.332;6.922;2023-06-24T01:00:29;6.18;;;3.72;;
53253;SDS011;39148;53.332;6.922;2023-06-24T01:02:57;5.00;;;3.17;;
53253;SDS011;39148;53.332;6.922;2023-06-24T01:05:24;5.90;;;3.47;;
53253;SDS011;39148;53.332;6.922;2023-06-24T01:07:51;6.03;;;3.38;;
53253;SDS011;39148;53.332;6.922;2023-06-24T01:10:20;5.93;;;3.67;;
53253;SDS011;39148;53.332;6.922;2023-06-24T01:12:48;5.43;;;3.47;;
53253;SDS011;39148;53.332;6.922;2023-06-24T01:15:14;4.88;;;3.50;;
53253;SDS011;39148;53.332;6.922;2023-06-24T01:20:19;6.35;;;3.53;;
53253;SDS011;39148;53.332;6.922;2023-06-24T01:25:44;6.80;;;3.40;;
53253;SDS011;39148;53.332;6.922;2023-06-24T01:36:27;5.63;;;3.63;;
53253;SDS011;39148;53.332;6.922;2023-06-24T01:38:58;6.28;;;3.72;;
53253;SDS011;39148;53.332;6.922;2023-06-24T01:41:31;5.55;;;3.25;;
53253;SDS011;39148;53.332;6.922;2023-06-24T01:44:01;5.82;;;3.30;;
53253;SDS011;39148;53.332;6.922;2023-06-24T01:46:29;5.57;;;3.30;;
53253;SDS011;39148;53.332;6.922;2023-06-24T01:48:55;6.50;;;3.38;;
53253;SDS011;39148;53.332;6.922;2023-06-24T01:51:26;5.32;;;3.20;;
53253;SDS011;39148;53.332;6.922;2023-06-24T01:53:57;4.90;;;3.03;;
53253;SDS011;39148;53.332;6.922;2023-06-24T01:56:26;5.15;;;3.17;;
53253;SDS011;39148;53.332;6.922;2023-06-24T01:58:54;5.20;;;3.10;;
53253;SDS011;39148;53.332;6.922;2023-06-24T02:01:22;5.22;;;3.40;;
53253;SDS011;39148;53.332;6.922;2023-06-24T02:03:49;4.97;;;3.38;;
53253;SDS011;39148;53.332;6.922;2023-06-24T02:06:17;4.90;;;3.10;;
53253;SDS011;39148;53.332;6.922;2023-06-24T02:08:44;5.95;;;3.42;;
53253;SDS011;39148;53.332;6.922;2023-06-24T02:11:13;4.72;;;3.17;;
53253;SDS011;39148;53.332;6.922;2023-06-24T02:13:39;5.25;;;3.50;;
53253;SDS011;39148;53.332;6.922;2023-06-24T02:16:07;5.95;;;3.55;;
53253;SDS011;39148;53.332;6.922;2023-06-24T02:18:35;5.78;;;3.42;;
53253;SDS011;39148;53.332;6.922;2023-06-24T02:21:03;6.22;;;3.47;;
53253;SDS011;39148;53.332;6.922;2023-06-24T02:23:30;4.97;;;3.35;;
53253;SDS011;39148;53.332;6.922;2023-06-24T02:25:56;5.32;;;3.30;;
53253;SDS011;39148;53.332;6.922;2023-06-24T02:28:23;5.28;;;3.30;;
53253;SDS011;39148;53.332;6.922;2023-06-24T02:30:49;5.72;;;3.53;;
53253;SDS011;39148;53.332;6.922;2023-06-24T02:33:16;5.22;;;3.55;;
53253;SDS011;39148;53.332;6.922;2023-06-24T02:35:42;5.07;;;3.22;;
53253;SDS011;39148;53.332;6.922;2023-06-24T02:38:10;4.97;;;3.25;;
53253;SDS011;39148;53.332;6.922;2023-06-24T02:40:36;4.53;;;3.35;;
53253;SDS011;39148;53.332;6.922;2023-06-24T02:43:02;5.07;;;3.22;;
53253;SDS011;39148;53.332;6.922;2023-06-24T02:45:27;4.22;;;2.85;;
53253;SDS011;39148;53.332;6.922;2023-06-24T02:47:54;4.45;;;3.10;;
53253;SDS011;39148;53.332;6.922;2023-06-24T02:50:21;4.55;;;3.28;;
53253;SDS011;39148;53.332;6.922;2023-06-24T02:52:47;4.90;;;3.50;;
53253;SDS011;39148;53.332;6.922;2023-06-24T02:55:14;4.93;;;3.28;;
53253;SDS011;39148;53.332;6.922;2023-06-24T02:57:40;5.03;;;3.08;;
53253;SDS011;39148;53.332;6.922;2023-06-24T03:00:07;5.43;;;3.70;;
53253;SDS011;39148;53.332;6.922;2023-06-24T03:02:40;5.43;;;3.38;;
53253;SDS011;39148;53.332;6.922;2023-06-24T03:05:08;5.80;;;3.55;;
53253;SDS011;39148;53.332;6.922;2023-06-24T03:07:35;4.90;;;3.40;;
53253;SDS011;39148;53.332;6.922;2023-06-24T03:10:02;5.72;;;3.63;;
53253;SDS011;39148;53.332;6.922;2023-06-24T03:12:28;6.13;;;3.97;;
53253;SDS011;39148;53.332;6.922;2023-06-24T03:14:54;5.05;;;3.35;;
53253;SDS011;39148;53.332;6.922;2023-06-24T03:17:20;5.07;;;3.40;;
53253;SDS011;39148;53.332;6.922;2023-06-24T03:19:45;6.18;;;3.75;;
53253;SDS011;39148;53.332;6.922;2023-06-24T03:22:11;5.63;;;3.58;;
53253;SDS011;39148;53.332;6.922;2023-06-24T03:24:37;6.53;;;3.60;;
53253;SDS011;39148;53.332;6.922;2023-06-24T03:27:03;5.03;;;3.30;;
53253;SDS011;39148;53.332;6.922;2023-06-24T03:29:28;4.70;;;3.20;;
53253;SDS011;39148;53.332;6.922;2023-06-24T03:31:54;5.70;;;3.50;;
53253;SDS011;39148;53.332;6.922;2023-06-24T03:34:20;5.25;;;3.63;;
53253;SDS011;39148;53.332;6.922;2023-06-24T03:36:46;5.82;;;3.78;;
53253;SDS011;39148;53.332;6.922;2023-06-24T03:39:12;5.70;;;3.88;;
53253;SDS011;39148;53.332;6.922;2023-06-24T03:41:37;6.93;;;4.20;;
53253;SDS011;39148;53.332;6.922;2023-06-24T03:44:04;6.07;;;3.95;;
53253;SDS011;39148;53.332;6.922;2023-06-24T03:46:30;7.10;;;3.95;;
53253;SDS011;39148;53.332;6.922;2023-06-24T03:48:58;7.57;;;4.28;;
53253;SDS011;39148;53.332;6.922;2023-06-24T03:51:25;6.40;;;3.75;;
53253;SDS011;39148;53.332;6.922;2023-06-24T03:53:51;6.40;;;4.20;;
53253;SDS011;39148;53.332;6.922;2023-06-24T03:56:17;6.95;;;4.07;;
53253;SDS011;39148;53.332;6.922;2023-06-24T03:58:42;6.03;;;4.22;;
53253;SDS011;39148;53.332;6.922;2023-06-24T04:01:08;6.85;;;4.13;;
53253;SDS011;39148;53.332;6.922;2023-06-24T04:03:34;6.00;;;4.05;;
53253;SDS011;39148;53.332;6.922;2023-06-24T04:06:01;6.45;;;4.22;;
53253;SDS011;39148;53.332;6.922;2023-06-24T04:08:26;6.32;;;4.00;;
53253;SDS011;39148;53.332;6.922;2023-06-24T04:10:55;6.78;;;4.72;;
53253;SDS011;39148;53.332;6.922;2023-06-24T04:13:31;6.47;;;4.20;;
53253;SDS011;39148;53.332;6.922;2023-06-24T04:15:57;6.00;;;4.28;;
53253;SDS011;39148;53.332;6.922;2023-06-24T04:18:23;6.78;;;4.20;;
53253;SDS011;39148;53.332;6.922;2023-06-24T04:20:49;8.57;;;4.80;;
53253;SDS011;39148;53.332;6.922;2023-06-24T04:23:15;7.03;;;4.65;;
53253;SDS011;39148;53.332;6.922;2023-06-24T04:25:41;6.15;;;4.63;;
53253;SDS011;39148;53.332;6.922;2023-06-24T04:28:07;6.95;;;4.20;;
53253;SDS011;39148;53.332;6.922;2023-06-24T04:30:33;8.55;;;4.93;;
53253;SDS011;39148;53.332;6.922;2023-06-24T04:33:03;5.78;;;4.13;;
53253;SDS011;39148;53.332;6.922;2023-06-24T04:35:29;8.40;;;5.05;;
53253;SDS011;39148;53.332;6.922;2023-06-24T04:37:55;9.65;;;4.63;;
53253;SDS011;39148;53.332;6.922;2023-06-24T04:40:21;6.38;;;4.65;;
53253;SDS011;39148;53.332;6.922;2023-06-24T04:42:47;7.28;;;5.07;;
53253;SDS011;39148;53.332;6.922;2023-06-24T04:45:13;9.60;;;4.65;;
53253;SDS011;39148;53.332;6.922;2023-06-24T04:47:39;7.88;;;5.63;;
53253;SDS011;39148;53.332;6.922;2023-06-24T04:50:05;6.82;;;4.40;;
53253;SDS011;39148;53.332;6.922;2023-06-24T04:52:31;7.18;;;4.65;;
53253;SDS011;39148;53.332;6.922;2023-06-24T04:54:57;7.75;;;5.22;;
53253;SDS011;39148;53.332;6.922;2023-06-24T04:57:26;9.48;;;5.15;;
53253;SDS011;39148;53.332;6.922;2023-06-24T04:59:53;7.38;;;5.07;;
53253;SDS011;39148;53.332;6.922;2023-06-24T05:02:19;9.23;;;5.65;;
53253;SDS011;39148;53.332;6.922;2023-06-24T05:04:45;7.57;;;5.18;;
53253;SDS011;39148;53.332;6.922;2023-06-24T05:07:11;7.53;;;5.32;;
53253;SDS011;39148;53.332;6.922;2023-06-24T05:09:37;6.70;;;5.22;;
53253;SDS011;39148;53.332;6.922;2023-06-24T05:12:06;7.03;;;4.97;;
53253;SDS011;39148;53.332;6.922;2023-06-24T05:14:35;7.90;;;5.32;;
53253;SDS011;39148;53.332;6.922;2023-06-24T05:17:02;7.53;;;5.63;;
53253;SDS011;39148;53.332;6.922;2023-06-24T05:19:28;8.07;;;5.15;;
53253;SDS011;39148;53.332;6.922;2023-06-24T05:21:54;8.88;;;5.28;;
53253;SDS011;39148;53.332;6.922;2023-06-24T05:24:20;9.05;;;5.97;;
53253;SDS011;39148;53.332;6.922;2023-06-24T05:26:48;9.60;;;5.63;;
53253;SDS011;39148;53.332;6.922;2023-06-24T05:29:14;8.52;;;5.65;;
53253;SDS011;39148;53.332;6.922;2023-06-24T05:31:40;8.35;;;5.60;;
53253;SDS011;39148;53.332;6.922;2023-06-24T05:34:06;8.02;;;5.43;;
53253;SDS011;39148;53.332;6.922;2023-06-24T05:36:32;10.02;;;6.35;;
53253;SDS011;39148;53.332;6.922;2023-06-24T05:38:58;8.02;;;5.50;;
53253;SDS011;39148;53.332;6.922;2023-06-24T05:41:25;7.22;;;5.07;;
53253;SDS011;39148;53.332;6.922;2023-06-24T05:44:00;10.00;;;5.60;;
53253;SDS011;39148;53.332;6.922;2023-06-24T05:46:30;6.90;;;4.75;;
53253;SDS011;39148;53.332;6.922;2023-06-24T05:48:56;7.18;;;5.55;;
53253;SDS011;39148;53.332;6.922;2023-06-24T05:51:22;8.32;;;5.65;;
53253;SDS011;39148;53.332;6.922;2023-06-24T05:53:47;7.38;;;5.47;;
53253;SDS011;39148;53.332;6.922;2023-06-24T05:56:13;7.55;;;5.55;;
53253;SDS011;39148;53.332;6.922;2023-06-24T05:58:39;6.72;;;4.95;;
53253;SDS011;39148;53.332;6.922;2023-06-24T06:01:06;7.88;;;5.43;;
53253;SDS011;39148;53.332;6.922;2023-06-24T06:03:34;8.02;;;5.15;;
53253;SDS011;39148;53.332;6.922;2023-06-24T06:06:00;7.65;;;5.07;;
53253;SDS011;39148;53.332;6.922;2023-06-24T06:08:26;7.85;;;5.07;;
53253;SDS011;39148;53.332;6.922;2023-06-24T06:10:51;6.18;;;4.60;;
53253;SDS011;39148;53.332;6.922;2023-06-24T06:13:17;7.47;;;5.00;;
53253;SDS011;39148;53.332;6.922;2023-06-24T06:15:43;7.78;;;4.80;;
53253;SDS011;39148;53.332;6.922;2023-06-24T06:18:09;5.82;;;4.20;;
53253;SDS011;39148;53.332;6.922;2023-06-24T06:20:34;7.88;;;4.75;;
53253;SDS011;39148;53.332;6.922;2023-06-24T06:23:00;6.90;;;4.45;;
53253;SDS011;39148;53.332;6.922;2023-06-24T06:25:26;8.68;;;5.28;;
53253;SDS011;39148;53.332;6.922;2023-06-24T06:27:51;7.43;;;4.43;;
53253;SDS011;39148;53.332;6.922;2023-06-24T06:30:17;7.13;;;4.70;;
53253;SDS011;39148;53.332;6.922;2023-06-24T06:32:43;9.55;;;4.30;;
53253;SDS011;39148;53.332;6.922;2023-06-24T06:35:08;7.22;;;4.47;;
53253;SDS011;39148;53.332;6.922;2023-06-24T06:37:34;6.30;;;4.53;;
53253;SDS011;39148;53.332;6.922;2023-06-24T06:40:00;5.60;;;4.28;;
53253;SDS011;39148;53.332;6.922;2023-06-24T06:42:26;6.63;;;4.43;;
53253;SDS011;39148;53.332;6.922;2023-06-24T06:44:52;6.50;;;4.35;;
53253;SDS011;39148;53.332;6.922;2023-06-24T06:47:17;7.25;;;4.63;;
53253;SDS011;39148;53.332;6.922;2023-06-24T06:49:43;6.72;;;4.13;;
53253;SDS011;39148;53.332;6.922;2023-06-24T06:52:08;6.38;;;4.10;;
53253;SDS011;39148;53.332;6.922;2023-06-24T06:54:34;6.40;;;4.07;;
53253;SDS011;39148;53.332;6.922;2023-06-24T06:57:01;7.30;;;4.32;;
53253;SDS011;39148;53.332;6.922;2023-06-24T06:59:27;6.40;;;3.92;;
53253;SDS011;39148;53.332;6.922;2023-06-24T07:01:53;5.90;;;3.42;;
53253;SDS011;39148;53.332;6.922;2023-06-24T07:04:18;6.72;;;3.95;;
53253;SDS011;39148;53.332;6.922;2023-06-24T07:06:44;5.85;;;3.60;;
53253;SDS011;39148;53.332;6.922;2023-06-24T07:09:10;6.00;;;3.70;;
53253;SDS011;39148;53.332;6.922;2023-06-24T07:11:36;6.13;;;3.70;;
53253;SDS011;39148;53.332;6.922;2023-06-24T07:14:01;5.88;;;3.72;;
53253;SDS011;39148;53.332;6.922;2023-06-24T07:16:27;5.57;;;3.42;;
53253;SDS011;39148;53.332;6.922;2023-06-24T07:18:52;5.60;;;3.67;;
53253;SDS011;39148;53.332;6.922;2023-06-24T07:21:18;6.50;;;3.58;;
53253;SDS011;39148;53.332;6.922;2023-06-24T07:23:44;6.38;;;3.75;;
53253;SDS011;39148;53.332;6.922;2023-06-24T07:26:10;5.82;;;3.70;;
53253;SDS011;39148;53.332;6.922;2023-06-24T07:28:36;5.88;;;3.80;;
53253;SDS011;39148;53.332;6.922;2023-06-24T07:31:02;5.32;;;3.63;;
53253;SDS011;39148;53.332;6.922;2023-06-24T07:33:28;5.85;;;3.53;;
53253;SDS011;39148;53.332;6.922;2023-06-24T07:35:55;7.10;;;3.60;;
53253;SDS011;39148;53.332;6.922;2023-06-24T07:38:21;6.00;;;3.65;;
53253;SDS011;39148;53.332;6.922;2023-06-24T07:40:47;6.68;;;3.90;;
53253;SDS011;39148;53.332;6.922;2023-06-24T07:43:13;6.47;;;4.03;;
53253;SDS011;39148;53.332;6.922;2023-06-24T07:45:39;6.90;;;3.72;;
53253;SDS011;39148;53.332;6.922;2023-06-24T07:48:04;6.28;;;3.40;;
53253;SDS011;39148;53.332;6.922;2023-06-24T07:50:32;6.28;;;3.45;;
53253;SDS011;39148;53.332;6.922;2023-06-24T07:52:58;4.93;;;3.17;;
53253;SDS011;39148;53.332;6.922;2023-06-24T07:55:24;5.28;;;2.95;;
53253;SDS011;39148;53.332;6.922;2023-06-24T07:57:49;4.82;;;3.00;;
53253;SDS011;39148;53.332;6.922;2023-06-24T08:00:15;5.15;;;3.38;;
53253;SDS011;39148;53.332;6.922;2023-06-24T08:02:42;5.53;;;3.60;;
53253;SDS011;39148;53.332;6.922;2023-06-24T08:05:08;5.13;;;3.28;;
53253;SDS011;39148;53.332;6.922;2023-06-24T08:07:37;5.55;;;3.47;;
53253;SDS011;39148;53.332;6.922;2023-06-24T08:10:03;4.78;;;3.42;;
53253;SDS011;39148;53.332;6.922;2023-06-24T08:12:29;5.05;;;3.33;;
53253;SDS011;39148;53.332;6.922;2023-06-24T08:14:56;4.57;;;2.92;;
53253;SDS011;39148;53.332;6.922;2023-06-24T08:17:22;4.68;;;2.90;;
53253;SDS011;39148;53.332;6.922;2023-06-24T08:19:48;8.20;;;3.30;;
53253;SDS011;39148;53.332;6.922;2023-06-24T08:22:14;5.00;;;3.25;;
53253;SDS011;39148;53.332;6.922;2023-06-24T08:24:39;4.88;;;3.10;;
53253;SDS011;39148;53.332;6.922;2023-06-24T08:27:05;4.60;;;2.80;;
53253;SDS011;39148;53.332;6.922;2023-06-24T08:29:31;4.78;;;3.13;;
53253;SDS011;39148;53.332;6.922;2023-06-24T08:31:57;5.22;;;3.22;;
53253;SDS011;39148;53.332;6.922;2023-06-24T08:34:22;4.22;;;2.90;;
53253;SDS011;39148;53.332;6.922;2023-06-24T08:36:48;4.30;;;2.78;;
53253;SDS011;39148;53.332;6.922;2023-06-24T08:39:14;4.97;;;2.92;;
53253;SDS011;39148;53.332;6.922;2023-06-24T08:41:40;3.83;;;2.63;;
53253;SDS011;39148;53.332;6.922;2023-06-24T08:44:05;4.95;;;2.90;;
53253;SDS011;39148;53.332;6.922;2023-06-24T08:46:31;4.20;;;2.67;;
53253;SDS011;39148;53.332;6.922;2023-06-24T08:51:54;5.00;;;3.13;;
53253;SDS011;39148;53.332;6.922;2023-06-24T08:54:21;5.35;;;2.97;;
53253;SDS011;39148;53.332;6.922;2023-06-24T08:56:47;4.50;;;2.67;;
53253;SDS011;39148;53.332;6.922;2023-06-24T08:59:13;5.90;;;3.05;;
53253;SDS011;39148;53.332;6.922;2023-06-24T09:01:44;4.70;;;2.90;;
53253;SDS011;39148;53.332;6.922;2023-06-24T09:04:11;5.95;;;3.50;;
53253;SDS011;39148;53.332;6.922;2023-06-24T09:06:37;4.70;;;2.65;;
53253;SDS011;39148;53.332;6.922;2023-06-24T09:09:02;5.80;;;3.00;;
53253;SDS011;39148;53.332;6.922;2023-06-24T09:11:28;6.35;;;2.85;;
53253;SDS011;39148;53.332;6.922;2023-06-24T09:13:58;4.90;;;3.00;;
53253;SDS011;39148;53.332;6.922;2023-06-24T09:16:24;4.18;;;2.72;;
53253;SDS011;39148;53.332;6.922;2023-06-24T09:18:51;4.57;;;2.80;;
53253;SDS011;39148;53.332;6.922;2023-06-24T09:21:24;4.88;;;2.67;;
53253;SDS011;39148;53.332;6.922;2023-06-24T09:23:54;5.13;;;3.38;;
53253;SDS011;39148;53.332;6.922;2023-06-24T09:26:24;6.47;;;3.40;;
53253;SDS011;39148;53.332;6.922;2023-06-24T09:28:51;5.40;;;3.33;;
53253;SDS011;39148;53.332;6.922;2023-06-24T09:31:17;4.95;;;3.33;;
53253;SDS011;39148;53.332;6.922;2023-06-24T09:33:44;4.57;;;2.60;;
53253;SDS011;39148;53.332;6.922;2023-06-24T09:36:11;6.10;;;3.08;;
53253;SDS011;39148;53.332;6.922;2023-06-24T09:38:38;4.50;;;2.85;;
53253;SDS011;39148;53.332;6.922;2023-06-24T09:41:06;5.80;;;3.10;;
53253;SDS011;39148;53.332;6.922;2023-06-24T09:43:33;5.60;;;3.00;;
53253;SDS011;39148;53.332;6.922;2023-06-24T09:46:05;5.38;;;3.15;;
53253;SDS011;39148;53.332;6.922;2023-06-24T09:48:35;4.80;;;2.80;;
53253;SDS011;39148;53.332;6.922;2023-06-24T09:51:02;6.63;;;3.35;;
53253;SDS011;39148;53.332;6.922;2023-06-24T09:53:32;5.40;;;3.42;;
53253;SDS011;39148;53.332;6.922;2023-06-24T09:55:59;5.75;;;3.10;;
53253;SDS011;39148;53.332;6.922;2023-06-24T09:58:36;4.63;;;2.80;;
53253;SDS011;39148;53.332;6.922;2023-06-24T10:01:03;5.30;;;3.40;;
53253;SDS011;39148;53.332;6.922;2023-06-24T10:03:32;4.03;;;2.30;;
53253;SDS011;39148;53.332;6.922;2023-06-24T10:06:00;4.43;;;2.70;;
53253;SDS011;39148;53.332;6.922;2023-06-24T10:08:29;5.55;;;3.20;;
53253;SDS011;39148;53.332;6.922;2023-06-24T10:10:55;4.53;;;2.80;;
53253;SDS011;39148;53.332;6.922;2023-06-24T10:13:21;4.55;;;2.50;;
53253;SDS011;39148;53.332;6.922;2023-06-24T10:15:47;5.63;;;3.22;;
53253;SDS011;39148;53.332;6.922;2023-06-24T10:18:33;5.15;;;3.10;;
53253;SDS011;39148;53.332;6.922;2023-06-24T10:21:00;4.28;;;2.80;;
53253;SDS011;39148;53.332;6.922;2023-06-24T10:26:35;4.03;;;2.50;;
53253;SDS011;39148;53.332;6.922;2023-06-24T10:39:39;4.72;;;2.72;;
53253;SDS011;39148;53.332;6.922;2023-06-24T10:44:52;4.97;;;2.85;;
53253;SDS011;39148;53.332;6.922;2023-06-24T10:47:19;4.57;;;2.42;;
53253;SDS011;39148;53.332;6.922;2023-06-24T10:49:46;4.88;;;2.80;;
53253;SDS011;39148;53.332;6.922;2023-06-24T10:52:12;4.75;;;2.67;;
53253;SDS011;39148;53.332;6.922;2023-06-24T10:54:39;4.75;;;2.90;;
53253;SDS011;39148;53.332;6.922;2023-06-24T10:57:05;5.22;;;2.65;;
53253;SDS011;39148;53.332;6.922;2023-06-24T10:59:36;4.05;;;2.55;;
53253;SDS011;39148;53.332;6.922;2023-06-24T11:02:04;4.57;;;2.63;;
53253;SDS011;39148;53.332;6.922;2023-06-24T11:04:30;4.40;;;2.42;;
53253;SDS011;39148;53.332;6.922;2023-06-24T11:06:57;4.10;;;2.47;;
53253;SDS011;39148;53.332;6.922;2023-06-24T11:11:52;4.93;;;2.40;;
53253;SDS011;39148;53.332;6.922;2023-06-24T11:14:21;3.85;;;2.25;;
53253;SDS011;39148;53.332;6.922;2023-06-24T11:16:47;3.53;;;1.98;;
53253;SDS011;39148;53.332;6.922;2023-06-24T11:19:14;4.03;;;2.47;;
53253;SDS011;39148;53.332;6.922;2023-06-24T11:21:40;3.63;;;2.20;;
53253;SDS011;39148;53.332;6.922;2023-06-24T11:24:06;4.00;;;2.25;;
53253;SDS011;39148;53.332;6.922;2023-06-24T11:26:33;4.82;;;2.30;;
53253;SDS011;39148;53.332;6.922;2023-06-24T11:28:59;4.28;;;2.63;;
53253;SDS011;39148;53.332;6.922;2023-06-24T11:31:28;4.28;;;2.33;;
53253;SDS011;39148;53.332;6.922;2023-06-24T11:33:58;4.22;;;2.50;;
53253;SDS011;39148;53.332;6.922;2023-06-24T11:36:23;4.95;;;2.63;;
53253;SDS011;39148;53.332;6.922;2023-06-24T11:38:49;4.03;;;2.40;;
53253;SDS011;39148;53.332;6.922;2023-06-24T11:41:14;4.40;;;2.63;;
53253;SDS011;39148;53.332;6.922;2023-06-24T11:43:47;4.75;;;2.50;;
53253;SDS011;39148;53.332;6.922;2023-06-24T11:46:28;3.90;;;2.50;;
53253;SDS011;39148;53.332;6.922;2023-06-24T11:49:07;4.95;;;2.20;;
53253;SDS011;39148;53.332;6.922;2023-06-24T11:51:34;4.03;;;2.45;;
53253;SDS011;39148;53.332;6.922;2023-06-24T11:54:02;5.32;;;2.63;;
53253;SDS011;39148;53.332;6.922;2023-06-24T11:56:39;4.05;;;2.60;;
53253;SDS011;39148;53.332;6.922;2023-06-24T11:59:05;3.65;;;2.15;;
53253;SDS011;39148;53.332;6.922;2023-06-24T12:01:35;3.85;;;2.22;;
53253;SDS011;39148;53.332;6.922;2023-06-24T12:04:10;4.15;;;2.10;;
53253;SDS011;39148;53.332;6.922;2023-06-24T12:06:42;3.88;;;2.35;;
53253;SDS011;39148;53.332;6.922;2023-06-24T12:09:09;4.78;;;2.40;;
53253;SDS011;39148;53.332;6.922;2023-06-24T12:11:35;4.05;;;2.30;;
53253;SDS011;39148;53.332;6.922;2023-06-24T12:14:01;3.47;;;2.08;;
53253;SDS011;39148;53.332;6.922;2023-06-24T12:16:27;4.38;;;2.22;;
53253;SDS011;39148;53.332;6.922;2023-06-24T12:18:54;4.22;;;2.22;;
53253;SDS011;39148;53.332;6.922;2023-06-24T12:21:20;3.92;;;2.28;;
53253;SDS011;39148;53.332;6.922;2023-06-24T12:23:46;3.42;;;2.03;;
53253;SDS011;39148;53.332;6.922;2023-06-24T12:26:12;3.88;;;2.20;;
53253;SDS011;39148;53.332;6.922;2023-06-24T12:28:38;4.25;;;2.10;;
53253;SDS011;39148;53.332;6.922;2023-06-24T12:31:04;4.40;;;2.35;;
53253;SDS011;39148;53.332;6.922;2023-06-24T12:33:30;5.00;;;2.70;;
53253;SDS011;39148;53.332;6.922;2023-06-24T12:35:55;4.97;;;2.10;;
53253;SDS011;39148;53.332;6.922;2023-06-24T12:38:21;3.67;;;2.30;;
53253;SDS011;39148;53.332;6.922;2023-06-24T12:40:47;4.80;;;3.00;;
53253;SDS011;39148;53.332;6.922;2023-06-24T12:43:13;4.10;;;2.75;;
53253;SDS011;39148;53.332;6.922;2023-06-24T12:45:40;5.55;;;2.70;;
53253;SDS011;39148;53.332;6.922;2023-06-24T12:48:08;3.80;;;2.47;;
53253;SDS011;39148;53.332;6.922;2023-06-24T12:50:35;4.47;;;2.78;;
53253;SDS011;39148;53.332;6.922;2023-06-24T12:53:01;4.70;;;3.05;;
53253;SDS011;39148;53.332;6.922;2023-06-24T12:55:28;4.50;;;3.08;;
53253;SDS011;39148;53.332;6.922;2023-06-24T12:57:54;5.40;;;2.90;;
53253;SDS011;39148;53.332;6.922;2023-06-24T13:00:20;4.35;;;2.60;;
53253;SDS011;39148;53.332;6.922;2023-06-24T13:02:46;5.03;;;2.75;;
53253;SDS011;39148;53.332;6.922;2023-06-24T13:05:12;5.43;;;3.05;;
53253;SDS011;39148;53.332;6.922;2023-06-24T13:07:38;4.50;;;2.90;;
53253;SDS011;39148;53.332;6.922;2023-06-24T13:10:04;5.07;;;3.10;;
53253;SDS011;39148;53.332;6.922;2023-06-24T13:12:34;4.80;;;2.92;;
53253;SDS011;39148;53.332;6.922;2023-06-24T13:15:01;4.80;;;2.75;;
53253;SDS011;39148;53.332;6.922;2023-06-24T13:17:29;5.18;;;3.30;;
53253;SDS011;39148;53.332;6.922;2023-06-24T13:19:55;4.38;;;2.83;;
53253;SDS011;39148;53.332;6.922;2023-06-24T13:22:21;5.53;;;3.13;;
53253;SDS011;39148;53.332;6.922;2023-06-24T13:24:47;4.80;;;2.80;;
53253;SDS011;39148;53.332;6.922;2023-06-24T13:27:13;4.50;;;2.80;;
53253;SDS011;39148;53.332;6.922;2023-06-24T13:29:38;4.60;;;2.72;;
53253;SDS011;39148;53.332;6.922;2023-06-24T13:32:04;4.45;;;2.70;;
53253;SDS011;39148;53.332;6.922;2023-06-24T13:34:30;4.20;;;2.80;;
53253;SDS011;39148;53.332;6.922;2023-06-24T13:36:56;5.60;;;3.00;;
53253;SDS011;39148;53.332;6.922;2023-06-24T13:39:22;5.72;;;3.30;;
53253;SDS011;39148;53.332;6.922;2023-06-24T13:41:49;4.82;;;3.00;;
53253;SDS011;39148;53.332;6.922;2023-06-24T13:44:15;4.45;;;2.85;;
53253;SDS011;39148;53.332;6.922;2023-06-24T13:46:41;4.40;;;2.72;;
53253;SDS011;39148;53.332;6.922;2023-06-24T13:49:07;4.70;;;2.60;;
53253;SDS011;39148;53.332;6.922;2023-06-24T13:51:33;5.13;;;2.92;;
53253;SDS011;39148;53.332;6.922;2023-06-24T13:53:59;5.70;;;2.80;;
53253;SDS011;39148;53.332;6.922;2023-06-24T13:56:26;5.38;;;2.63;;
53253;SDS011;39148;53.332;6.922;2023-06-24T13:58:52;4.20;;;2.40;;
53253;SDS011;39148;53.332;6.922;2023-06-24T14:01:18;5.13;;;2.70;;
53253;SDS011;39148;53.332;6.922;2023-06-24T14:03:44;4.70;;;3.08;;
53253;SDS011;39148;53.332;6.922;2023-06-24T14:06:11;4.45;;;2.42;;
53253;SDS011;39148;53.332;6.922;2023-06-24T14:08:39;4.32;;;2.30;;
53253;SDS011;39148;53.332;6.922;2023-06-24T14:11:05;4.82;;;2.78;;
53253;SDS011;39148;53.332;6.922;2023-06-24T14:13:31;4.32;;;2.60;;
53253;SDS011;39148;53.332;6.922;2023-06-24T14:15:56;4.68;;;2.30;;
53253;SDS011;39148;53.332;6.922;2023-06-24T14:18:22;4.22;;;2.50;;
53253;SDS011;39148;53.332;6.922;2023-06-24T14:20:48;4.25;;;2.30;;
53253;SDS011;39148;53.332;6.922;2023-06-24T14:23:14;4.47;;;2.42;;
53253;SDS011;39148;53.332;6.922;2023-06-24T14:25:40;4.82;;;2.65;;
53253;SDS011;39148;53.332;6.922;2023-06-24T14:28:06;4.78;;;2.40;;
53253;SDS011;39148;53.332;6.922;2023-06-24T14:30:32;4.10;;;2.35;;
53253;SDS011;39148;53.332;6.922;2023-06-24T14:32:59;4.90;;;2.60;;
53253;SDS011;39148;53.332;6.922;2023-06-24T14:35:25;4.82;;;2.15;;
53253;SDS011;39148;53.332;6.922;2023-06-24T14:37:51;4.68;;;2.10;;
53253;SDS011;39148;53.332;6.922;2023-06-24T14:40:17;4.53;;;2.60;;
53253;SDS011;39148;53.332;6.922;2023-06-24T14:42:43;4.40;;;2.05;;
53253;SDS011;39148;53.332;6.922;2023-06-24T14:45:09;4.25;;;2.10;;
53253;SDS011;39148;53.332;6.922;2023-06-24T14:47:35;3.83;;;2.13;;
53253;SDS011;39148;53.332;6.922;2023-06-24T14:50:01;3.20;;;2.05;;
53253;SDS011;39148;53.332;6.922;2023-06-24T14:52:27;3.80;;;1.88;;
53253;SDS011;39148;53.332;6.922;2023-06-24T14:54:53;3.47;;;1.98;;
53253;SDS011;39148;53.332;6.922;2023-06-24T14:57:20;3.95;;;2.08;;
53253;SDS011;39148;53.332;6.922;2023-06-24T14:59:48;4.28;;;2.22;;
53253;SDS011;39148;53.332;6.922;2023-06-24T15:02:13;3.80;;;2.20;;
53253;SDS011;39148;53.332;6.922;2023-06-24T15:04:39;4.30;;;2.25;;
53253;SDS011;39148;53.332;6.922;2023-06-24T15:07:06;3.40;;;2.17;;
53253;SDS011;39148;53.332;6.922;2023-06-24T15:09:32;3.97;;;2.22;;
53253;SDS011;39148;53.332;6.922;2023-06-24T15:11:59;3.60;;;1.92;;
53253;SDS011;39148;53.332;6.922;2023-06-24T15:14:25;4.28;;;2.10;;
53253;SDS011;39148;53.332;6.922;2023-06-24T15:16:51;4.18;;;2.10;;
53253;SDS011;39148;53.332;6.922;2023-06-24T15:19:19;3.83;;;2.10;;
53253;SDS011;39148;53.332;6.922;2023-06-24T15:21:44;4.40;;;2.38;;